sensor_id;sensor_type;location;lat;lon;timestamp;temperature;humidity
44747;DHT22;30472;49.490;10.972;2023-07-30T00:01:19;17.50;99.90
44747;DHT22;30472;49.490;10.972;2023-07-30T00:03:45;17.50;99.90
44747;DHT22;30472;49.490;10.972;2023-07-30T00:06:10;17.50;99.90
44747;DHT22;30472;49.490;10.972;2023-07-30T00:08:36;17.50;99.90
44747;DHT22;30472;49.490;10.972;2023-07-30T00:11:01;17.50;99.90
44747;DHT22;30472;49.490;10.972;2023-07-30T00:13:27;17.50;99.90
44747;DHT22;30472;49.490;10.972;2023-07-30T00:15:52;17.50;99.90
44747;DHT22;30472;49.490;10.972;2023-07-30T00:18:18;17.50;99.90
44747;DHT22;30472;49.490;10.972;2023-07-30T00:20:44;17.50;99.90
44747;DHT22;30472;49.490;10.972;2023-07-30T00:23:09;17.60;99.90
44747;DHT22;30472;49.490;10.972;2023-07-30T00:25:35;17.60;99.90
44747;DHT22;30472;49.490;10.972;2023-07-30T00:28:01;17.70;99.90
44747;DHT22;30472;49.490;10.972;2023-07-30T00:30:26;17.80;99.90
44747;DHT22;30472;49.490;10.972;2023-07-30T00:32:52;17.80;99.90
44747;DHT22;30472;49.490;10.972;2023-07-30T00:35:17;17.80;99.90
44747;DHT22;30472;49.490;10.972;2023-07-30T00:37:43;17.80;99.90
44747;DHT22;30472;49.490;10.972;2023-07-30T00:40:09;17.90;99.90
44747;DHT22;30472;49.490;10.972;2023-07-30T00:42:35;17.90;99.90
44747;DHT22;30472;49.490;10.972;2023-07-30T00:45:00;17.90;99.90
44747;DHT22;30472;49.490;10.972;2023-07-30T00:47:26;17.90;99.90
44747;DHT22;30472;49.490;10.972;2023-07-30T00:49:53;17.90;99.90
44747;DHT22;30472;49.490;10.972;2023-07-30T00:52:20;17.90;99.90
44747;DHT22;30472;49.490;10.972;2023-07-30T00:54:49;17.90;99.90
44747;DHT22;30472;49.490;10.972;2023-07-30T00:57:18;17.90;99.90
44747;DHT22;30472;49.490;10.972;2023-07-30T00:59:45;17.90;99.90
44747;DHT22;30472;49.490;10.972;2023-07-30T01:02:12;17.90;99.90
44747;DHT22;30472;49.490;10.972;2023-07-30T01:04:37;17.90;99.90
44747;DHT22;30472;49.490;10.972;2023-07-30T01:07:05;18.00;99.90
44747;DHT22;30472;49.490;10.972;2023-07-30T01:09:31;18.00;99.90
44747;DHT22;30472;49.490;10.972;2023-07-30T01:11:58;18.00;99.90
44747;DHT22;30472;49.490;10.972;2023-07-30T01:14:25;17.90;99.90
44747;DHT22;30472;49.490;10.972;2023-07-30T01:16:53;17.90;99.90
44747;DHT22;30472;49.490;10.972;2023-07-30T01:19:19;17.90;99.90
44747;DHT22;30472;49.490;10.972;2023-07-30T01:21:45;17.90;99.90
44747;DHT22;30472;49.490;10.972;2023-07-30T01:24:10;17.90;99.90
44747;DHT22;30472;49.490;10.972;2023-07-30T01:29:14;17.90;99.90
44747;DHT22;30472;49.490;10.972;2023-07-30T01:31:42;17.90;99.90
44747;DHT22;30472;49.490;10.972;2023-07-30T01:34:10;17.90;99.90
44747;DHT22;30472;49.490;10.972;2023-07-30T01:36:38;17.90;99.90
44747;DHT22;30472;49.490;10.972;2023-07-30T01:39:04;17.80;99.90
44747;DHT22;30472;49.490;10.972;2023-07-30T01:41:30;17.80;99.90
44747;DHT22;30472;49.490;10.972;2023-07-30T01:43:55;17.90;99.90
44747;DHT22;30472;49.490;10.972;2023-07-30T01:46:21;17.90;99.90
44747;DHT22;30472;49.490;10.972;2023-07-30T01:48:46;17.80;99.90
44747;DHT22;30472;49.490;10.972;2023-07-30T01:51:12;17.80;99.90
44747;DHT22;30472;49.490;10.972;2023-07-30T01:53:38;17.80;99.90
44747;DHT22;30472;49.490;10.972;2023-07-30T01:56:03;17.80;99.90
44747;DHT22;30472;49.490;10.972;2023-07-30T01:58:29;17.70;99.90
44747;DHT22;30472;49.490;10.972;2023-07-30T02:00:54;17.70;99.90
44747;DHT22;30472;49.490;10.972;2023-07-30T02:03:20;17.70;99.90
44747;DHT22;30472;49.490;10.972;2023-07-30T02:05:45;17.70;99.90
44747;DHT22;30472;49.490;10.972;2023-07-30T02:08:11;17.70;99.90
44747;DHT22;30472;49.490;10.972;2023-07-30T02:10:38;17.70;99.90
44747;DHT22;30472;49.490;10.972;2023-07-30T02:13:04;17.60;99.90
44747;DHT22;30472;49.490;10.972;2023-07-30T02:15:29;17.60;99.90
44747;DHT22;30472;49.490;10.972;2023-07-30T02:17:55;17.60;99.90
44747;DHT22;30472;49.490;10.972;2023-07-30T02:20:20;17.60;99.90
44747;DHT22;30472;49.490;10.972;2023-07-30T02:22:46;17.60;99.90
44747;DHT22;30472;49.490;10.972;2023-07-30T02:25:12;17.60;99.90
44747;DHT22;30472;49.490;10.972;2023-07-30T02:27:37;17.60;99.90
44747;DHT22;30472;49.490;10.972;2023-07-30T02:30:03;17.60;99.90
44747;DHT22;30472;49.490;10.972;2023-07-30T02:32:29;17.60;99.90
44747;DHT22;30472;49.490;10.972;2023-07-30T02:34:55;17.60;99.90
44747;DHT22;30472;49.490;10.972;2023-07-30T02:37:20;17.60;99.90
44747;DHT22;30472;49.490;10.972;2023-07-30T02:39:46;17.60;99.90
44747;DHT22;30472;49.490;10.972;2023-07-30T02:42:11;17.60;99.90
44747;DHT22;30472;49.490;10.972;2023-07-30T02:44:37;17.60;99.90
44747;DHT22;30472;49.490;10.972;2023-07-30T02:47:03;17.60;99.90
44747;DHT22;30472;49.490;10.972;2023-07-30T02:49:28;17.60;99.90
44747;DHT22;30472;49.490;10.972;2023-07-30T02:51:54;17.50;99.90
44747;DHT22;30472;49.490;10.972;2023-07-30T02:54:19;17.50;99.90
44747;DHT22;30472;49.490;10.972;2023-07-30T02:56:47;17.50;99.90
44747;DHT22;30472;49.490;10.972;2023-07-30T02:59:12;17.50;99.90
44747;DHT22;30472;49.490;10.972;2023-07-30T03:01:38;17.50;99.90
44747;DHT22;30472;49.490;10.972;2023-07-30T03:04:04;17.40;99.90
44747;DHT22;30472;49.490;10.972;2023-07-30T03:06:31;17.40;99.90
44747;DHT22;30472;49.490;10.972;2023-07-30T03:08:56;17.40;99.90
44747;DHT22;30472;49.490;10.972;2023-07-30T03:11:22;17.40;99.90
44747;DHT22;30472;49.490;10.972;2023-07-30T03:13:48;17.40;99.90
44747;DHT22;30472;49.490;10.972;2023-07-30T03:16:13;17.30;99.90
44747;DHT22;30472;49.490;10.972;2023-07-30T03:18:39;17.30;99.90
44747;DHT22;30472;49.490;10.972;2023-07-30T03:21:05;17.30;99.90
44747;DHT22;30472;49.490;10.972;2023-07-30T03:23:30;17.30;99.90
44747;DHT22;30472;49.490;10.972;2023-07-30T03:25:57;17.30;99.90
44747;DHT22;30472;49.490;10.972;2023-07-30T03:28:23;17.30;99.90
44747;DHT22;30472;49.490;10.972;2023-07-30T03:30:48;17.30;99.90
44747;DHT22;30472;49.490;10.972;2023-07-30T03:33:14;17.20;99.90
44747;DHT22;30472;49.490;10.972;2023-07-30T03:35:40;17.10;99.90
44747;DHT22;30472;49.490;10.972;2023-07-30T03:38:05;17.10;99.90
44747;DHT22;30472;49.490;10.972;2023-07-30T03:40:31;17.00;99.90
44747;DHT22;30472;49.490;10.972;2023-07-30T03:42:57;17.00;99.90
44747;DHT22;30472;49.490;10.972;2023-07-30T03:45:22;16.90;99.90
44747;DHT22;30472;49.490;10.972;2023-07-30T03:47:48;16.90;99.90
44747;DHT22;30472;49.490;10.972;2023-07-30T03:50:13;16.90;99.90
44747;DHT22;30472;49.490;10.972;2023-07-30T03:52:39;16.90;99.90
44747;DHT22;30472;49.490;10.972;2023-07-30T03:55:04;16.90;99.90
44747;DHT22;30472;49.490;10.972;2023-07-30T03:57:30;16.80;99.90
44747;DHT22;30472;49.490;10.972;2023-07-30T03:59:56;16.80;99.90
44747;DHT22;30472;49.490;10.972;2023-07-30T04:02:21;16.70;99.90
44747;DHT22;30472;49.490;10.972;2023-07-30T04:04:47;16.70;99.90
44747;DHT22;30472;49.490;10.972;2023-07-30T04:07:15;16.70;99.90
44747;DHT22;30472;49.490;10.972;2023-07-30T04:09:41;16.70;99.90
44747;DHT22;30472;49.490;10.972;2023-07-30T04:12:06;16.70;99.90
44747;DHT22;30472;49.490;10.972;2023-07-30T04:14:32;16.70;99.90
44747;DHT22;30472;49.490;10.972;2023-07-30T04:16:58;16.70;99.90
44747;DHT22;30472;49.490;10.972;2023-07-30T04:19:23;16.70;99.90
44747;DHT22;30472;49.490;10.972;2023-07-30T04:21:49;16.70;99.90
44747;DHT22;30472;49.490;10.972;2023-07-30T04:24:14;16.70;99.90
44747;DHT22;30472;49.490;10.972;2023-07-30T04:26:40;16.80;99.90
44747;DHT22;30472;49.490;10.972;2023-07-30T04:29:05;16.70;99.90
44747;DHT22;30472;49.490;10.972;2023-07-30T04:31:31;16.80;99.90
44747;DHT22;30472;49.490;10.972;2023-07-30T04:33:58;16.80;99.90
44747;DHT22;30472;49.490;10.972;2023-07-30T04:36:23;16.90;99.90
44747;DHT22;30472;49.490;10.972;2023-07-30T04:38:49;16.90;99.90
44747;DHT22;30472;49.490;10.972;2023-07-30T04:41:14;16.90;99.90
44747;DHT22;30472;49.490;10.972;2023-07-30T04:43:40;16.90;99.90
44747;DHT22;30472;49.490;10.972;2023-07-30T04:46:06;17.00;99.90
44747;DHT22;30472;49.490;10.972;2023-07-30T04:48:31;17.00;99.90
44747;DHT22;30472;49.490;10.972;2023-07-30T04:50:57;17.10;99.90
44747;DHT22;30472;49.490;10.972;2023-07-30T04:53:22;17.10;99.90
44747;DHT22;30472;49.490;10.972;2023-07-30T04:55:48;17.20;99.90
44747;DHT22;30472;49.490;10.972;2023-07-30T04:58:13;17.20;99.90
44747;DHT22;30472;49.490;10.972;2023-07-30T05:00:39;17.30;99.90
44747;DHT22;30472;49.490;10.972;2023-07-30T05:03:04;17.30;99.90
44747;DHT22;30472;49.490;10.972;2023-07-30T05:05:30;17.40;99.90
44747;DHT22;30472;49.490;10.972;2023-07-30T05:07:55;17.50;99.90
44747;DHT22;30472;49.490;10.972;2023-07-30T05:10:21;17.50;99.90
44747;DHT22;30472;49.490;10.972;2023-07-30T05:12:47;17.50;99.90
44747;DHT22;30472;49.490;10.972;2023-07-30T05:15:12;17.60;99.90
44747;DHT22;30472;49.490;10.972;2023-07-30T05:17:38;17.60;99.90
44747;DHT22;30472;49.490;10.972;2023-07-30T05:20:03;17.50;99.90
44747;DHT22;30472;49.490;10.972;2023-07-30T05:22:30;17.60;99.90
44747;DHT22;30472;49.490;10.972;2023-07-30T05:24:55;17.50;99.90
44747;DHT22;30472;49.490;10.972;2023-07-30T05:27:21;17.60;99.90
44747;DHT22;30472;49.490;10.972;2023-07-30T05:29:47;17.60;99.90
44747;DHT22;30472;49.490;10.972;2023-07-30T05:32:13;17.80;99.90
44747;DHT22;30472;49.490;10.972;2023-07-30T05:34:38;18.10;99.90
44747;DHT22;30472;49.490;10.972;2023-07-30T05:37:04;18.20;99.90
44747;DHT22;30472;49.490;10.972;2023-07-30T05:39:29;18.20;99.90
44747;DHT22;30472;49.490;10.972;2023-07-30T05:41:55;18.20;99.90
44747;DHT22;30472;49.490;10.972;2023-07-30T05:44:20;18.20;99.90
44747;DHT22;30472;49.490;10.972;2023-07-30T05:46:46;18.30;99.90
44747;DHT22;30472;49.490;10.972;2023-07-30T05:49:12;18.30;99.90
44747;DHT22;30472;49.490;10.972;2023-07-30T05:51:37;18.40;99.90
44747;DHT22;30472;49.490;10.972;2023-07-30T05:54:03;18.50;99.90
44747;DHT22;30472;49.490;10.972;2023-07-30T05:56:28;18.60;99.90
44747;DHT22;30472;49.490;10.972;2023-07-30T05:58:54;18.60;99.90
44747;DHT22;30472;49.490;10.972;2023-07-30T06:01:19;18.70;99.90
44747;DHT22;30472;49.490;10.972;2023-07-30T06:03:45;18.70;99.90
44747;DHT22;30472;49.490;10.972;2023-07-30T06:06:11;18.60;99.90
44747;DHT22;30472;49.490;10.972;2023-07-30T06:08:36;18.60;99.90
44747;DHT22;30472;49.490;10.972;2023-07-30T06:11:02;18.80;99.90
44747;DHT22;30472;49.490;10.972;2023-07-30T06:13:28;18.90;99.90
44747;DHT22;30472;49.490;10.972;2023-07-30T06:15:54;18.80;99.90
44747;DHT22;30472;49.490;10.972;2023-07-30T06:18:20;18.90;99.90
44747;DHT22;30472;49.490;10.972;2023-07-30T06:20:46;19.10;99.90
44747;DHT22;30472;49.490;10.972;2023-07-30T06:23:12;19.30;99.90
44747;DHT22;30472;49.490;10.972;2023-07-30T06:25:37;19.40;99.90
44747;DHT22;30472;49.490;10.972;2023-07-30T06:28:04;19.60;99.90
44747;DHT22;30472;49.490;10.972;2023-07-30T06:30:30;19.70;99.90
44747;DHT22;30472;49.490;10.972;2023-07-30T06:32:56;20.10;99.90
44747;DHT22;30472;49.490;10.972;2023-07-30T06:35:21;20.30;99.90
44747;DHT22;30472;49.490;10.972;2023-07-30T06:37:47;20.10;99.90
44747;DHT22;30472;49.490;10.972;2023-07-30T06:40:12;20.00;99.90
44747;DHT22;30472;49.490;10.972;2023-07-30T06:42:38;19.70;99.90
44747;DHT22;30472;49.490;10.972;2023-07-30T06:45:04;19.70;99.90
44747;DHT22;30472;49.490;10.972;2023-07-30T06:47:29;19.60;99.90
44747;DHT22;30472;49.490;10.972;2023-07-30T06:49:55;19.60;99.90
44747;DHT22;30472;49.490;10.972;2023-07-30T06:52:20;19.70;99.90
44747;DHT22;30472;49.490;10.972;2023-07-30T06:54:46;19.60;99.90
44747;DHT22;30472;49.490;10.972;2023-07-30T06:57:11;19.50;99.90
44747;DHT22;30472;49.490;10.972;2023-07-30T06:59:37;19.60;99.90
44747;DHT22;30472;49.490;10.972;2023-07-30T07:02:03;19.70;99.90
44747;DHT22;30472;49.490;10.972;2023-07-30T07:04:30;19.80;99.90
44747;DHT22;30472;49.490;10.972;2023-07-30T07:06:56;19.70;99.90
44747;DHT22;30472;49.490;10.972;2023-07-30T07:09:21;19.80;99.90
44747;DHT22;30472;49.490;10.972;2023-07-30T07:11:47;19.80;99.90
44747;DHT22;30472;49.490;10.972;2023-07-30T07:14:12;19.90;99.90
44747;DHT22;30472;49.490;10.972;2023-07-30T07:16:38;20.00;99.90
44747;DHT22;30472;49.490;10.972;2023-07-30T07:19:03;19.90;99.90
44747;DHT22;30472;49.490;10.972;2023-07-30T07:21:29;19.80;99.90
44747;DHT22;30472;49.490;10.972;2023-07-30T07:23:54;19.70;99.90
44747;DHT22;30472;49.490;10.972;2023-07-30T07:26:21;19.70;99.90
44747;DHT22;30472;49.490;10.972;2023-07-30T07:28:46;20.00;99.90
44747;DHT22;30472;49.490;10.972;2023-07-30T07:31:12;20.20;99.90
44747;DHT22;30472;49.490;10.972;2023-07-30T07:33:37;20.10;99.90
44747;DHT22;30472;49.490;10.972;2023-07-30T07:36:07;20.10;99.90
44747;DHT22;30472;49.490;10.972;2023-07-30T07:38:33;20.40;99.90
44747;DHT22;30472;49.490;10.972;2023-07-30T07:41:00;20.60;99.90
44747;DHT22;30472;49.490;10.972;2023-07-30T07:43:26;20.20;99.90
44747;DHT22;30472;49.490;10.972;2023-07-30T07:45:52;20.20;99.90
44747;DHT22;30472;49.490;10.972;2023-07-30T07:48:19;20.20;99.90
44747;DHT22;30472;49.490;10.972;2023-07-30T07:50:45;20.30;99.90
44747;DHT22;30472;49.490;10.972;2023-07-30T07:53:10;20.20;99.90
44747;DHT22;30472;49.490;10.972;2023-07-30T07:55:36;20.20;99.90
44747;DHT22;30472;49.490;10.972;2023-07-30T07:58:02;20.30;99.90
44747;DHT22;30472;49.490;10.972;2023-07-30T08:00:27;20.20;99.90
44747;DHT22;30472;49.490;10.972;2023-07-30T08:02:53;20.30;99.90
44747;DHT22;30472;49.490;10.972;2023-07-30T08:05:18;20.40;99.90
44747;DHT22;30472;49.490;10.972;2023-07-30T08:07:46;20.50;99.90
44747;DHT22;30472;49.490;10.972;2023-07-30T08:10:12;20.70;99.90
44747;DHT22;30472;49.490;10.972;2023-07-30T08:12:37;20.50;99.90
44747;DHT22;30472;49.490;10.972;2023-07-30T08:15:03;20.40;99.90
44747;DHT22;30472;49.490;10.972;2023-07-30T08:17:29;20.40;99.90
44747;DHT22;30472;49.490;10.972;2023-07-30T08:19:54;20.40;99.90
44747;DHT22;30472;49.490;10.972;2023-07-30T08:22:20;20.50;99.90
44747;DHT22;30472;49.490;10.972;2023-07-30T08:24:46;20.50;99.90
44747;DHT22;30472;49.490;10.972;2023-07-30T08:27:11;20.60;99.90
44747;DHT22;30472;49.490;10.972;2023-07-30T08:29:37;20.80;99.90
44747;DHT22;30472;49.490;10.972;2023-07-30T08:32:02;20.90;99.90
44747;DHT22;30472;49.490;10.972;2023-07-30T08:34:28;21.00;99.90
44747;DHT22;30472;49.490;10.972;2023-07-30T08:36:54;21.00;99.90
44747;DHT22;30472;49.490;10.972;2023-07-30T08:39:19;20.90;99.90
44747;DHT22;30472;49.490;10.972;2023-07-30T08:41:45;20.90;99.90
44747;DHT22;30472;49.490;10.972;2023-07-30T08:44:12;20.70;99.90
44747;DHT22;30472;49.490;10.972;2023-07-30T08:46:38;20.90;99.90
44747;DHT22;30472;49.490;10.972;2023-07-30T08:49:04;21.10;99.90
44747;DHT22;30472;49.490;10.972;2023-07-30T08:51:31;21.20;99.90
44747;DHT22;30472;49.490;10.972;2023-07-30T08:54:00;21.10;99.90
44747;DHT22;30472;49.490;10.972;2023-07-30T08:56:26;20.90;99.90
44747;DHT22;30472;49.490;10.972;2023-07-30T08:58:53;21.20;99.90
44747;DHT22;30472;49.490;10.972;2023-07-30T09:01:27;21.30;99.90
44747;DHT22;30472;49.490;10.972;2023-07-30T09:03:54;21.80;99.90
44747;DHT22;30472;49.490;10.972;2023-07-30T09:06:22;21.80;99.90
44747;DHT22;30472;49.490;10.972;2023-07-30T09:08:48;21.80;99.90
44747;DHT22;30472;49.490;10.972;2023-07-30T09:11:13;21.60;99.90
44747;DHT22;30472;49.490;10.972;2023-07-30T09:13:40;22.40;99.90
44747;DHT22;30472;49.490;10.972;2023-07-30T09:16:10;23.90;99.90
44747;DHT22;30472;49.490;10.972;2023-07-30T09:18:46;23.70;99.90
44747;DHT22;30472;49.490;10.972;2023-07-30T09:21:13;23.90;99.90
44747;DHT22;30472;49.490;10.972;2023-07-30T09:23:42;23.40;99.90
44747;DHT22;30472;49.490;10.972;2023-07-30T09:26:08;23.20;99.90
44747;DHT22;30472;49.490;10.972;2023-07-30T09:28:33;23.80;99.90
44747;DHT22;30472;49.490;10.972;2023-07-30T09:31:00;24.00;99.90
44747;DHT22;30472;49.490;10.972;2023-07-30T09:33:27;23.70;99.90
44747;DHT22;30472;49.490;10.972;2023-07-30T09:35:52;23.50;99.90
44747;DHT22;30472;49.490;10.972;2023-07-30T09:38:19;23.60;99.90
44747;DHT22;30472;49.490;10.972;2023-07-30T09:40:45;23.80;99.90
44747;DHT22;30472;49.490;10.972;2023-07-30T09:43:14;24.40;99.90
44747;DHT22;30472;49.490;10.972;2023-07-30T09:45:43;24.50;99.90
44747;DHT22;30472;49.490;10.972;2023-07-30T09:48:09;24.90;99.90
44747;DHT22;30472;49.490;10.972;2023-07-30T09:50:36;24.40;99.90
44747;DHT22;30472;49.490;10.972;2023-07-30T09:53:03;24.10;99.90
44747;DHT22;30472;49.490;10.972;2023-07-30T09:55:29;23.90;99.90
44747;DHT22;30472;49.490;10.972;2023-07-30T09:57:55;23.90;99.90
44747;DHT22;30472;49.490;10.972;2023-07-30T10:00:20;23.80;99.90
44747;DHT22;30472;49.490;10.972;2023-07-30T10:02:47;22.90;99.90
44747;DHT22;30472;49.490;10.972;2023-07-30T10:05:19;23.20;99.90
44747;DHT22;30472;49.490;10.972;2023-07-30T10:08:19;22.90;99.90
44747;DHT22;30472;49.490;10.972;2023-07-30T10:10:47;22.50;99.90
44747;DHT22;30472;49.490;10.972;2023-07-30T10:13:15;22.40;99.90
44747;DHT22;30472;49.490;10.972;2023-07-30T10:15:41;22.30;99.90
44747;DHT22;30472;49.490;10.972;2023-07-30T10:18:07;22.10;99.90
44747;DHT22;30472;49.490;10.972;2023-07-30T10:20:33;21.80;99.90
44747;DHT22;30472;49.490;10.972;2023-07-30T10:23:00;21.50;99.90
44747;DHT22;30472;49.490;10.972;2023-07-30T10:27:57;20.50;99.90
44747;DHT22;30472;49.490;10.972;2023-07-30T10:30:30;20.20;99.90
44747;DHT22;30472;49.490;10.972;2023-07-30T10:35:42;19.50;99.90
44747;DHT22;30472;49.490;10.972;2023-07-30T10:38:40;19.40;99.90
44747;DHT22;30472;49.490;10.972;2023-07-30T10:41:14;19.70;99.90
44747;DHT22;30472;49.490;10.972;2023-07-30T10:43:46;19.60;99.90
44747;DHT22;30472;49.490;10.972;2023-07-30T10:46:12;19.70;99.90
44747;DHT22;30472;49.490;10.972;2023-07-30T10:48:39;19.90;99.90
44747;DHT22;30472;49.490;10.972;2023-07-30T10:51:08;20.00;99.90
44747;DHT22;30472;49.490;10.972;2023-07-30T10:53:34;20.40;99.90
44747;DHT22;30472;49.490;10.972;2023-07-30T10:56:02;20.60;99.90
44747;DHT22;30472;49.490;10.972;2023-07-30T10:58:30;21.00;99.90
44747;DHT22;30472;49.490;10.972;2023-07-30T11:00:56;21.30;99.90
44747;DHT22;30472;49.490;10.972;2023-07-30T11:03:27;21.50;99.90
44747;DHT22;30472;49.490;10.972;2023-07-30T11:05:53;21.30;99.90
44747;DHT22;30472;49.490;10.972;2023-07-30T11:08:19;21.50;99.90
44747;DHT22;30472;49.490;10.972;2023-07-30T11:10:45;21.80;99.90
44747;DHT22;30472;49.490;10.972;2023-07-30T11:13:14;21.20;99.90
44747;DHT22;30472;49.490;10.972;2023-07-30T11:15:45;21.40;99.90
44747;DHT22;30472;49.490;10.972;2023-07-30T11:18:12;21.30;99.90
44747;DHT22;30472;49.490;10.972;2023-07-30T11:20:38;21.30;99.90
44747;DHT22;30472;49.490;10.972;2023-07-30T11:23:20;21.40;99.90
44747;DHT22;30472;49.490;10.972;2023-07-30T11:25:49;21.80;99.90
44747;DHT22;30472;49.490;10.972;2023-07-30T11:28:27;21.40;99.90
44747;DHT22;30472;49.490;10.972;2023-07-30T11:30:53;21.80;99.90
44747;DHT22;30472;49.490;10.972;2023-07-30T11:33:19;22.20;99.90
44747;DHT22;30472;49.490;10.972;2023-07-30T11:35:45;22.60;99.90
44747;DHT22;30472;49.490;10.972;2023-07-30T11:38:11;22.30;99.90
44747;DHT22;30472;49.490;10.972;2023-07-30T11:40:38;22.20;99.90
44747;DHT22;30472;49.490;10.972;2023-07-30T11:43:04;22.20;99.90
44747;DHT22;30472;49.490;10.972;2023-07-30T11:45:30;22.90;99.90
44747;DHT22;30472;49.490;10.972;2023-07-30T11:48:06;22.70;99.90
44747;DHT22;30472;49.490;10.972;2023-07-30T11:50:49;22.10;99.90
44747;DHT22;30472;49.490;10.972;2023-07-30T11:53:15;22.10;99.90
44747;DHT22;30472;49.490;10.972;2023-07-30T11:55:41;21.90;99.90
44747;DHT22;30472;49.490;10.972;2023-07-30T11:58:08;22.30;99.90
44747;DHT22;30472;49.490;10.972;2023-07-30T12:00:41;22.30;99.90
44747;DHT22;30472;49.490;10.972;2023-07-30T12:03:11;22.80;99.90
44747;DHT22;30472;49.490;10.972;2023-07-30T12:05:39;23.00;99.90
44747;DHT22;30472;49.490;10.972;2023-07-30T12:08:07;22.90;99.90
44747;DHT22;30472;49.490;10.972;2023-07-30T12:10:45;22.60;99.90
44747;DHT22;30472;49.490;10.972;2023-07-30T12:13:20;22.90;99.90
44747;DHT22;30472;49.490;10.972;2023-07-30T12:15:56;23.10;99.90
44747;DHT22;30472;49.490;10.972;2023-07-30T12:18:23;23.20;99.90
44747;DHT22;30472;49.490;10.972;2023-07-30T12:20:50;23.60;99.90
44747;DHT22;30472;49.490;10.972;2023-07-30T12:23:16;23.40;99.90
44747;DHT22;30472;49.490;10.972;2023-07-30T12:25:42;23.90;99.90
44747;DHT22;30472;49.490;10.972;2023-07-30T12:28:07;23.80;99.90
44747;DHT22;30472;49.490;10.972;2023-07-30T12:30:33;24.30;99.90
44747;DHT22;30472;49.490;10.972;2023-07-30T12:33:00;24.60;99.90
44747;DHT22;30472;49.490;10.972;2023-07-30T12:35:26;24.60;99.90
44747;DHT22;30472;49.490;10.972;2023-07-30T12:37:52;23.90;99.90
44747;DHT22;30472;49.490;10.972;2023-07-30T12:40:17;23.30;99.90
44747;DHT22;30472;49.490;10.972;2023-07-30T12:42:43;23.20;99.90
44747;DHT22;30472;49.490;10.972;2023-07-30T12:45:09;23.00;99.90
44747;DHT22;30472;49.490;10.972;2023-07-30T12:47:34;23.00;99.90
44747;DHT22;30472;49.490;10.972;2023-07-30T12:50:04;22.90;99.90
44747;DHT22;30472;49.490;10.972;2023-07-30T12:52:32;22.90;99.90
44747;DHT22;30472;49.490;10.972;2023-07-30T12:54:57;22.90;99.90
44747;DHT22;30472;49.490;10.972;2023-07-30T12:57:23;23.50;99.90
44747;DHT22;30472;49.490;10.972;2023-07-30T12:59:48;24.00;99.90
44747;DHT22;30472;49.490;10.972;2023-07-30T13:02:14;24.50;99.90
44747;DHT22;30472;49.490;10.972;2023-07-30T13:04:39;24.60;99.90
44747;DHT22;30472;49.490;10.972;2023-07-30T13:07:05;24.40;99.90
44747;DHT22;30472;49.490;10.972;2023-07-30T13:09:31;24.40;99.90
44747;DHT22;30472;49.490;10.972;2023-07-30T13:11:57;24.40;99.90
44747;DHT22;30472;49.490;10.972;2023-07-30T13:14:22;25.10;99.90
44747;DHT22;30472;49.490;10.972;2023-07-30T13:16:48;24.80;99.90
44747;DHT22;30472;49.490;10.972;2023-07-30T13:19:13;24.90;99.90
44747;DHT22;30472;49.490;10.972;2023-07-30T13:21:39;24.30;99.90
44747;DHT22;30472;49.490;10.972;2023-07-30T13:24:04;24.70;99.90
44747;DHT22;30472;49.490;10.972;2023-07-30T13:26:30;25.40;99.90
44747;DHT22;30472;49.490;10.972;2023-07-30T13:28:55;25.10;99.90
44747;DHT22;30472;49.490;10.972;2023-07-30T13:31:21;24.60;99.90
44747;DHT22;30472;49.490;10.972;2023-07-30T13:33:47;24.60;99.90
44747;DHT22;30472;49.490;10.972;2023-07-30T13:36:13;24.80;99.90
44747;DHT22;30472;49.490;10.972;2023-07-30T13:38:39;24.80;99.90
44747;DHT22;30472;49.490;10.972;2023-07-30T13:41:05;25.10;99.90
44747;DHT22;30472;49.490;10.972;2023-07-30T13:43:32;25.00;99.90
44747;DHT22;30472;49.490;10.972;2023-07-30T13:45:57;25.00;99.90
44747;DHT22;30472;49.490;10.972;2023-07-30T13:48:24;24.40;99.90
44747;DHT22;30472;49.490;10.972;2023-07-30T13:50:50;24.10;99.90
44747;DHT22;30472;49.490;10.972;2023-07-30T13:53:15;23.30;99.90
44747;DHT22;30472;49.490;10.972;2023-07-30T13:55:41;23.00;99.90
44747;DHT22;30472;49.490;10.972;2023-07-30T13:58:08;23.40;99.90
44747;DHT22;30472;49.490;10.972;2023-07-30T14:00:33;23.30;99.90
44747;DHT22;30472;49.490;10.972;2023-07-30T14:02:59;23.60;99.90
44747;DHT22;30472;49.490;10.972;2023-07-30T14:05:24;23.50;99.90
44747;DHT22;30472;49.490;10.972;2023-07-30T14:07:50;23.80;99.90
44747;DHT22;30472;49.490;10.972;2023-07-30T14:10:19;24.50;99.90
44747;DHT22;30472;49.490;10.972;2023-07-30T14:12:45;24.20;99.90
44747;DHT22;30472;49.490;10.972;2023-07-30T14:15:10;23.30;99.90
44747;DHT22;30472;49.490;10.972;2023-07-30T14:17:36;23.70;99.90
44747;DHT22;30472;49.490;10.972;2023-07-30T14:20:02;24.10;99.90
44747;DHT22;30472;49.490;10.972;2023-07-30T14:22:27;24.30;99.90
44747;DHT22;30472;49.490;10.972;2023-07-30T14:24:53;24.00;99.90
44747;DHT22;30472;49.490;10.972;2023-07-30T14:27:19;23.50;99.90
44747;DHT22;30472;49.490;10.972;2023-07-30T14:29:44;23.30;99.90
44747;DHT22;30472;49.490;10.972;2023-07-30T14:32:10;23.00;99.90
44747;DHT22;30472;49.490;10.972;2023-07-30T14:34:36;23.20;99.90
44747;DHT22;30472;49.490;10.972;2023-07-30T14:37:01;23.20;99.90
44747;DHT22;30472;49.490;10.972;2023-07-30T14:39:27;23.60;99.90
44747;DHT22;30472;49.490;10.972;2023-07-30T14:41:52;23.70;99.90
44747;DHT22;30472;49.490;10.972;2023-07-30T14:44:18;24.10;99.90
44747;DHT22;30472;49.490;10.972;2023-07-30T14:46:44;23.90;99.90
44747;DHT22;30472;49.490;10.972;2023-07-30T14:49:10;23.80;99.90
44747;DHT22;30472;49.490;10.972;2023-07-30T14:51:35;23.90;99.90
44747;DHT22;30472;49.490;10.972;2023-07-30T14:54:01;23.70;99.90
44747;DHT22;30472;49.490;10.972;2023-07-30T14:56:28;24.00;99.90
44747;DHT22;30472;49.490;10.972;2023-07-30T14:58:54;24.00;99.90
44747;DHT22;30472;49.490;10.972;2023-07-30T15:01:21;23.90;99.90
44747;DHT22;30472;49.490;10.972;2023-07-30T15:03:46;24.00;99.90
44747;DHT22;30472;49.490;10.972;2023-07-30T15:06:12;23.70;99.90
44747;DHT22;30472;49.490;10.972;2023-07-30T15:08:38;23.40;99.90
44747;DHT22;30472;49.490;10.972;2023-07-30T15:11:03;23.30;99.90
44747;DHT22;30472;49.490;10.972;2023-07-30T15:13:29;23.70;99.90
44747;DHT22;30472;49.490;10.972;2023-07-30T15:15:54;23.40;99.90
44747;DHT22;30472;49.490;10.972;2023-07-30T15:18:20;23.30;99.90